Airfield :
LOGIN :

Register | Disclaimer

   EN    FR    IT 

 










Legend :    VFR   Marginal VFR   IFR   Intensive IFR   Very Intensive IFR
Visi :
Ceiling :
>= 8 km
>= 3000ft
5 to 8 km
1000 to 3000 ft
1500m to 5 km
500 to 1000 ft
800 to 1500m
200 to 500 ft
< 800m
< 200 ft
Symbols :   Thunderstorms  Fog  Heavy snow  Heavy precipitations  Wind > 20 kt
SIGMETs :     Misc.  Thunderstorms  Icing  Turbulence  Mountain Waves  Volcanic Ashes







- Airport Elevation : 978 ft
- IATA code : LNZ


LOWL - Linz

CURRENT METAR :
  • 210050Z AUTO VRB01KT 0350 R26/0325N FG BKN001 07/07 Q1019

EXPIRED METARs :
  • 210020Z AUTO 22003KT 0350 R26/0450N FG FEW000 BKN001 07/07 Q1019
  • 202350Z AUTO VRB02KT 0350 R26/0325N FG BKN001 07/07 Q1019
  • 202320Z AUTO VRB02KT 0350 R26/0450D BCFG FEW000 BKN001 07/07 Q1019
  • 202250Z AUTO VRB01KT 3000 1400E R26/P1500D BR FEW003 BKN210 07/07 Q1019
  • 202220Z AUTO 30004KT 2900 0500E R26/0600D BCFG FEW001 SCT005 BKN210 07/07 Q1019

TAF TAF LOWL
Valid from the 21 at 00:00 until the 22 at 00:00 UTC


202315Z 2100/2124 VRB02KT 2000 BR SCT003 TX15/2114Z TN08/2100Z
TEMPO 2100/2106 0300 FG VV001
BECMG 2106/2108 9999 SCT050 BKN070
No reported NOTAMs for that airfield.



MET'MAP, your aeronautical weather chart ! - Copyright ORBIFLY December 2007 - Disclaimer

ORBIFLY MET'MAP TEAM :

Programming & Development : Alexandra Zaïnal
Concept & Development : Baudouin d'Aumeries
Co-Development & Prog : Marc-Olivier Méhu
Technical & hardware support : Manuel Goepfert

Contact : metmap@orbifly.com




SOURCES & CREDITS :

   NOAA